Sturgeon, Missouri
Current Conditions -  °F | °C
As of 8:54 AM on Saturday 25 Oct 2014 (Local Time) from KCOU Reporting Station
Haze Haze  
Wind Chill: 61°   Ceiling: Unl
Heat Index: 61°   Visibility: 3mi
Dew Point: 60°   Wind: 3mph
Humidity: 97%   Direction: 280°W
Pressure: 30.06"   Gusts: NA
Location:  39.23°N, 92.28°W
Report Text: KCOU 251354Z 28003KT 3SM BR CLR 16/16 A3006 RMK AO2 SLP174 T01610156 $
Loading
Personal Weather Stations






























Interactive Weather Map
Tropical Storm Tracking
New forecast layout! Learn more

10-Day Weather Forecast

Advertisements
Track Severe Weather on mobile